الصفحة الرئيسية
METAR-TAF:

METAR-TAF

مطار :

Fairbanks, ألاسكا, الولايات المتحدة

دائرة عرض: 64-48-14N, خط طول: 147-52-34W, ارتفاع: 132 متر

مراقبة الطقس الحالي

تاريخ ووقت الإصدار 58 دقيقة قبل الساعة 15:53UTC
ريح 4 عقدة من الشمال/الشمال الشرقي
درجة الحرارة 0°درجة مئوية
الرطوبة 59%
ضغط 1023 hPa
الرؤية: 16.1 كم
سماء صافية

METAR: PAFA 251553Z 03004KT 10SM CLR 00/M07 A3020 RMK AO2 SLP234 T00001067 VISNO NE

زمن: 08:51 (16:51 UTC)

توقعات

تاريخ ووقت الإصدار 5ساعات و 11 دقيقة قبل الساعة 11:40UTC
التوقعات صالحة من25 الساعة 12 UTC إلى 26 الساعة 18 UTC
ريح 7 عقدة من الشمال/الشمال الشرقي
الرؤية: 10 كم
غيوم متفرقة على ارتفاع 7000 قدم

TAF: PAFA 251140Z 2512/2618 03007KT P6SM SCT070

أرصاد الطقس والتوقعات من أكثر من 4000 مطار (تقارير الطقس للمطار METAR والتنبؤ بالطقس بالمطارTAF).

المحطات المتاحة هي النقط الصفراء والحمراء على الخريطة.

حرك المؤشر فوق النقطة لمعرفة اسم المحطة.

ثم انقر لمعرفة أرصاد وتوقعات الطقس.

لتغيير الخارطة: اضغط على الأزرار الخضراء مع رمز الصليب الأسود للتكبير. على الزر الأخضر مع شرطة للتصغير، أو على الأسهم الخضراء للخرائط المجاورة.


METAR-TAF: